createdAt,value
2023-04-28T00:00:03.036Z,41.50
2023-04-28T00:05:07.823Z,43.03
2023-04-28T00:10:10.592Z,38.27
2023-04-28T00:15:13.579Z,33.57
2023-04-28T00:20:16.273Z,29.10
2023-04-28T00:25:18.770Z,30.20
2023-04-28T00:30:21.534Z,33.17
2023-04-28T00:35:24.158Z,27.73
2023-04-28T00:40:37.072Z,28.20
2023-04-28T00:45:39.627Z,30.07
2023-04-28T00:50:44.556Z,28.90
2023-04-28T00:55:48.176Z,28.27
2023-04-28T01:00:50.765Z,24.57
2023-04-28T01:05:53.688Z,25.40
2023-04-28T01:10:56.294Z,22.27
2023-04-28T01:16:18.822Z,25.33
2023-04-28T01:21:32.523Z,26.97
2023-04-28T01:26:39.356Z,25.67
2023-04-28T01:31:41.939Z,24.60
2023-04-28T01:36:44.420Z,23.30
2023-04-28T01:41:47.059Z,22.70
2023-04-28T01:46:49.560Z,36.60
2023-04-28T01:51:52.196Z,20.60
2023-04-28T01:56:54.656Z,22.83
2023-04-28T02:01:57.959Z,29.33
2023-04-28T02:07:00.558Z,20.93
2023-04-28T02:12:03.773Z,23.17
2023-04-28T02:17:06.560Z,29.73
2023-04-28T02:22:09.239Z,34.60
2023-04-28T02:27:11.618Z,28.60
2023-04-28T02:32:14.097Z,24.53
2023-04-28T02:37:16.583Z,23.60
2023-04-28T02:42:19.323Z,33.33
2023-04-28T02:47:21.919Z,27.60
2023-04-28T02:52:24.678Z,26.67
2023-04-28T02:57:27.168Z,31.07
2023-04-28T03:02:29.877Z,26.70
2023-04-28T03:07:32.393Z,29.47
2023-04-28T03:12:35.049Z,24.57
2023-04-28T03:17:39.240Z,22.60
2023-04-28T03:22:42.342Z,23.13
2023-04-28T03:27:44.869Z,26.20
2023-04-28T03:32:47.412Z,26.00
2023-04-28T03:37:50.942Z,23.00
2023-04-28T03:42:53.749Z,27.07
2023-04-28T03:48:04.384Z,24.53
2023-04-28T03:53:07.034Z,20.50
2023-04-28T03:58:10.065Z,20.37
2023-04-28T04:03:12.745Z,25.87
2023-04-28T04:08:15.714Z,22.97
2023-04-28T04:13:18.251Z,20.60
2023-04-28T04:18:21.349Z,27.50
2023-04-28T04:23:56.017Z,22.90
2023-04-28T04:28:58.991Z,26.43
2023-04-28T04:34:01.483Z,24.03
2023-04-28T04:39:04.426Z,33.33
2023-04-28T04:44:07.916Z,28.83
2023-04-28T04:49:17.990Z,31.57
2023-04-28T04:54:20.698Z,30.33
2023-04-28T04:59:23.451Z,37.23
2023-04-28T05:04:39.464Z,61.00
2023-04-28T05:09:43.590Z,53.30
2023-04-28T05:14:47.149Z,28.70
2023-04-28T05:19:50.947Z,50.33
2023-04-28T05:24:54.179Z,34.40
2023-04-28T05:29:56.777Z,50.27
2023-04-28T05:34:59.186Z,43.63
2023-04-28T05:40:01.634Z,34.03
2023-04-28T05:45:06.946Z,40.53
2023-04-28T06:07:06.168Z,19.33
2023-04-28T06:12:10.461Z,22.93
2023-04-28T06:17:13.018Z,35.77
2023-04-28T06:22:15.438Z,28.13
2023-04-28T06:27:18.572Z,31.57
2023-04-28T06:32:21.509Z,29.20
2023-04-28T06:37:24.126Z,23.43
2023-04-28T06:42:27.084Z,17.27
2023-04-28T06:47:40.989Z,17.97
2023-04-28T06:52:44.865Z,17.53
2023-04-28T06:57:47.384Z,10.27
2023-04-28T07:02:50.117Z,14.30
2023-04-28T07:07:52.706Z,17.77
2023-04-28T07:12:55.285Z,15.57
2023-04-28T07:17:57.860Z,9.83
2023-04-28T07:23:00.603Z,10.20
2023-04-28T07:28:05.870Z,5.70
2023-04-28T07:33:08.450Z,11.07
2023-04-28T07:38:10.974Z,8.03
2023-04-28T07:43:13.721Z,7.17
2023-04-28T07:48:16.766Z,6.20
2023-04-28T07:53:19.913Z,5.10
2023-04-28T07:58:22.407Z,7.20
2023-04-28T08:03:25.071Z,7.13
2023-04-28T08:08:27.723Z,6.17
2023-04-28T08:13:30.829Z,5.70
2023-04-28T08:18:33.492Z,7.27
2023-04-28T08:23:35.930Z,7.40
2023-04-28T08:28:39.329Z,9.67
2023-04-28T08:33:44.674Z,8.70
2023-04-28T08:38:47.667Z,7.03
2023-04-28T08:43:50.231Z,11.73
2023-04-28T08:49:00.356Z,5.50
2023-04-28T08:59:13.311Z,7.40
2023-04-28T09:04:18.329Z,11.73
2023-04-28T09:09:25.589Z,8.13
2023-04-28T09:14:29.706Z,14.50
2023-04-28T09:19:37.239Z,12.93
2023-04-28T09:24:42.863Z,14.77
2023-04-28T09:29:54.907Z,14.47
2023-04-28T09:34:57.653Z,8.70
2023-04-28T09:40:12.373Z,14.17
2023-04-28T09:45:16.273Z,10.93
2023-04-28T09:50:18.917Z,16.23
2023-04-28T09:55:21.415Z,9.07
2023-04-28T10:00:24.392Z,6.03
2023-04-28T10:05:27.335Z,11.50
2023-04-28T10:10:30.142Z,6.23
2023-04-28T10:15:33.615Z,8.50
2023-04-28T10:20:36.897Z,10.10
2023-04-28T10:25:40.512Z,5.87
2023-04-28T10:30:43.043Z,6.40
2023-04-28T10:35:47.539Z,13.97
2023-04-28T10:40:52.329Z,4.33
2023-04-28T10:46:02.322Z,12.80
2023-04-28T10:51:07.978Z,12.70
2023-04-28T10:56:16.836Z,14.80
2023-04-28T11:01:22.296Z,16.07
2023-04-28T11:06:40.349Z,5.40
2023-04-28T11:11:51.652Z,15.67
2023-04-28T11:17:02.894Z,9.90
2023-04-28T11:22:13.018Z,17.77
2023-04-28T11:27:24.597Z,7.20
2023-04-28T11:32:35.239Z,16.13
2023-04-28T11:37:37.849Z,14.80
2023-04-28T11:42:50.116Z,10.87
2023-04-28T11:47:52.581Z,13.37
2023-04-28T11:52:55.105Z,8.33
2023-04-28T11:58:24.990Z,11.43
2023-04-28T12:03:27.748Z,7.57
2023-04-28T12:08:30.518Z,8.03
2023-04-28T12:13:33.198Z,13.30
2023-04-28T12:18:37.053Z,12.63
2023-04-28T12:23:39.827Z,13.73
2023-04-28T12:28:42.425Z,12.03
2023-04-28T12:33:45.157Z,14.87
2023-04-28T12:38:49.569Z,14.17
2023-04-28T12:43:52.155Z,20.03
2023-04-28T12:48:54.687Z,8.00
2023-04-28T12:53:57.088Z,10.43
2023-04-28T12:59:02.485Z,5.30
2023-04-28T13:04:05.653Z,13.90
2023-04-28T13:09:08.381Z,8.50
2023-04-28T13:14:10.961Z,17.70
2023-04-28T13:19:14.731Z,15.73
2023-04-28T13:24:17.518Z,12.03
2023-04-28T13:29:20.773Z,10.67
2023-04-28T13:34:23.201Z,9.30
2023-04-28T13:39:25.656Z,18.63
2023-04-28T13:44:28.236Z,9.27
2023-04-28T13:49:30.867Z,16.10
2023-04-28T13:54:33.265Z,17.07
2023-04-28T13:59:36.058Z,2.73
2023-04-28T14:04:38.825Z,11.63
2023-04-28T14:09:41.703Z,12.57
2023-04-28T14:14:47.046Z,4.63
2023-04-28T14:19:49.801Z,16.47
2023-04-28T14:24:52.146Z,14.13
2023-04-28T14:29:54.622Z,11.33
2023-04-28T14:34:57.593Z,12.80
2023-04-28T14:40:01.148Z,5.53
2023-04-28T14:45:05.168Z,14.23
2023-04-28T14:50:08.636Z,7.73
2023-04-28T14:55:11.153Z,13.90
2023-04-28T15:00:14.335Z,8.30
2023-04-28T15:05:16.936Z,8.43
2023-04-28T15:10:19.405Z,4.93
2023-04-28T15:15:21.856Z,12.17
2023-04-28T15:20:24.462Z,3.03
2023-04-28T15:25:27.363Z,12.63
2023-04-28T15:30:29.858Z,8.03
2023-04-28T15:35:32.857Z,19.03
2023-04-28T15:40:35.528Z,6.53
2023-04-28T15:45:39.099Z,12.80
2023-04-28T15:50:41.787Z,10.03
2023-04-28T15:55:44.704Z,7.37
2023-04-28T16:00:47.228Z,5.57
2023-04-28T16:05:49.810Z,3.57
2023-04-28T16:10:53.199Z,6.53
2023-04-28T16:15:55.896Z,8.20
2023-04-28T16:20:58.440Z,7.23
2023-04-28T16:26:01.091Z,8.53
2023-04-28T16:31:03.666Z,7.93
2023-04-28T16:36:06.690Z,9.83
2023-04-28T16:41:09.378Z,5.73
2023-04-28T16:46:12.122Z,40.53
2023-04-28T16:51:14.619Z,13.80
2023-04-28T16:56:17.256Z,12.37
2023-04-28T17:01:19.989Z,5.13
2023-04-28T17:06:22.502Z,10.30
2023-04-28T17:11:25.006Z,13.17
2023-04-28T17:16:32.434Z,37.83
2023-04-28T17:21:35.310Z,19.57
2023-04-28T17:26:38.098Z,15.30
2023-04-28T17:31:40.701Z,12.40
2023-04-28T17:36:43.234Z,12.17
2023-04-28T17:41:46.924Z,16.67
2023-04-28T17:46:49.527Z,15.50
2023-04-28T17:51:52.043Z,14.87
2023-04-28T17:56:55.878Z,36.80
2023-04-28T18:02:00.016Z,32.43
2023-04-28T18:07:02.734Z,32.60
2023-04-28T18:12:05.653Z,15.73
2023-04-28T18:17:08.603Z,17.70
2023-04-28T18:22:11.001Z,40.47
2023-04-28T18:27:13.433Z,51.43
2023-04-28T18:32:16.456Z,37.53
2023-04-28T18:37:18.900Z,27.33
2023-04-28T18:42:21.661Z,31.63
2023-04-28T18:47:24.610Z,22.40
2023-04-28T18:52:27.343Z,21.03
2023-04-28T18:57:30.025Z,13.93
2023-04-28T19:02:33.267Z,24.50
2023-04-28T19:07:35.956Z,20.20
2023-04-28T19:12:38.403Z,20.20
2023-04-28T19:17:40.883Z,8.77
2023-04-28T19:22:44.333Z,20.93
2023-04-28T19:27:46.923Z,16.53
2023-04-28T19:32:49.499Z,19.93
2023-04-28T19:37:52.441Z,16.83
2023-04-28T19:42:55.574Z,25.50
2023-04-28T19:47:58.883Z,20.70
2023-04-28T19:53:01.432Z,18.57
2023-04-28T19:58:05.964Z,13.10
2023-04-28T20:03:08.924Z,22.53
2023-04-28T20:08:12.714Z,22.77
2023-04-28T20:13:15.404Z,12.97
2023-04-28T20:18:18.174Z,15.13
2023-04-28T20:23:20.778Z,16.77
2023-04-28T20:28:23.300Z,10.60
2023-04-28T20:33:25.813Z,16.73
2023-04-28T20:38:29.399Z,10.93
2023-04-28T20:43:32.514Z,7.53
2023-04-28T20:48:35.010Z,14.47
2023-04-28T20:53:39.607Z,9.87
2023-04-28T20:58:42.604Z,23.07
2023-04-28T21:03:45.429Z,17.07
2023-04-28T21:08:48.059Z,16.20
2023-04-28T21:13:50.808Z,13.50
2023-04-28T21:18:54.584Z,12.13
2023-04-28T21:23:57.046Z,11.07
2023-04-28T21:28:59.955Z,16.37
2023-04-28T21:34:02.433Z,20.07
2023-04-28T21:39:05.451Z,15.30
2023-04-28T21:44:07.943Z,20.07
2023-04-28T21:49:10.653Z,13.43
2023-04-28T21:54:14.453Z,24.07
2023-04-28T21:59:18.041Z,22.53
2023-04-28T22:04:21.027Z,21.40
2023-04-28T22:09:23.646Z,22.80
2023-04-28T22:19:38.024Z,22.47
2023-04-28T22:24:40.493Z,25.60
2023-04-28T22:29:42.934Z,37.73
2023-04-28T22:34:45.355Z,20.30
2023-04-28T22:39:48.116Z,21.63
2023-04-28T22:44:50.772Z,15.57
2023-04-28T22:49:53.210Z,16.83
2023-04-28T22:54:55.738Z,27.33
2023-04-28T22:59:58.245Z,22.77
2023-04-28T23:05:00.996Z,16.37
2023-04-28T23:10:05.273Z,13.47
2023-04-28T23:15:09.182Z,14.77
2023-04-28T23:20:12.057Z,25.07
2023-04-28T23:25:14.633Z,25.97
2023-04-28T23:30:17.194Z,25.47
2023-04-28T23:35:19.625Z,25.17
2023-04-28T23:40:22.003Z,21.17
2023-04-28T23:45:24.502Z,27.17
2023-04-28T23:50:27.926Z,35.87
2023-04-28T23:55:31.622Z,29.87
